createdAt,value
2022-12-12T00:00:44.293Z,17.23
2022-12-12T00:03:11.459Z,19.43
2022-12-12T00:05:39.038Z,18.57
2022-12-12T00:08:05.933Z,13.70
2022-12-12T00:10:34.587Z,18.50
2022-12-12T00:13:01.863Z,20.50
2022-12-12T00:15:28.681Z,20.00
2022-12-12T00:17:56.212Z,19.90
2022-12-12T00:20:23.133Z,16.70
2022-12-12T00:22:49.872Z,17.37
2022-12-12T00:25:16.592Z,19.97
2022-12-12T00:27:43.361Z,17.73
2022-12-12T00:30:10.882Z,16.67
2022-12-12T00:32:37.605Z,17.27
2022-12-12T00:35:04.864Z,18.57
2022-12-12T00:37:31.587Z,16.40
2022-12-12T00:39:58.334Z,18.77
2022-12-12T00:42:27.166Z,20.27
2022-12-12T00:44:53.931Z,19.43
2022-12-12T00:47:20.679Z,17.00
2022-12-12T00:49:47.456Z,14.27
2022-12-12T00:52:14.319Z,15.67
2022-12-12T00:54:41.040Z,14.53
2022-12-12T00:57:07.758Z,14.53
2022-12-12T00:59:34.640Z,13.93
2022-12-12T01:02:01.557Z,14.40
2022-12-12T01:04:28.281Z,17.13
2022-12-12T01:06:55.035Z,13.30
2022-12-12T01:09:21.740Z,14.00
2022-12-12T01:11:48.421Z,14.20
2022-12-12T01:14:15.128Z,15.23
2022-12-12T01:16:41.828Z,14.93
2022-12-12T01:19:08.677Z,13.87
2022-12-12T01:21:36.810Z,15.27
2022-12-12T01:24:03.859Z,13.57
2022-12-12T01:26:30.579Z,13.27
2022-12-12T01:28:57.255Z,14.47
2022-12-12T01:31:24.146Z,11.30
2022-12-12T01:33:51.062Z,16.20
2022-12-12T01:36:21.826Z,13.20
2022-12-12T01:38:54.215Z,13.93
2022-12-12T01:41:21.798Z,13.63
2022-12-12T01:43:49.400Z,12.73
2022-12-12T01:46:22.144Z,15.47
2022-12-12T01:49:00.280Z,17.53
2022-12-12T01:51:29.205Z,18.00
2022-12-12T01:54:07.780Z,16.13
2022-12-12T01:56:37.524Z,15.00
2022-12-12T01:59:08.678Z,20.10
2022-12-12T02:01:36.404Z,17.93
2022-12-12T02:04:04.341Z,20.03
2022-12-12T02:06:31.222Z,17.53
2022-12-12T02:09:04.632Z,20.40
2022-12-12T02:11:37.571Z,19.70
2022-12-12T02:14:04.411Z,21.17
2022-12-12T02:16:58.624Z,21.83
2022-12-12T02:20:12.175Z,20.50
2022-12-12T02:23:01.467Z,21.03
2022-12-12T02:25:59.446Z,24.10
2022-12-12T02:29:17.755Z,24.00
2022-12-12T02:32:16.386Z,21.50
2022-12-12T02:35:24.300Z,20.00
2022-12-12T02:38:24.982Z,18.90
2022-12-12T02:41:37.549Z,18.13
2022-12-12T02:44:20.142Z,21.33
2022-12-12T02:46:57.338Z,26.90
2022-12-12T02:49:40.799Z,25.80
2022-12-12T02:52:10.390Z,22.63
2022-12-12T02:54:38.185Z,24.67
2022-12-12T02:57:20.473Z,24.83
2022-12-12T03:00:08.674Z,22.80
2022-12-12T03:03:39.084Z,25.90
2022-12-12T03:07:02.671Z,22.70
2022-12-12T03:10:01.673Z,27.20
2022-12-12T03:12:50.201Z,20.70
2022-12-12T03:15:25.236Z,21.10
2022-12-12T03:18:18.895Z,21.53
2022-12-12T03:21:09.396Z,25.43
2022-12-12T03:23:43.811Z,20.67
2022-12-12T03:26:21.143Z,21.87
2022-12-12T03:29:13.604Z,22.13
2022-12-12T03:31:47.106Z,26.70
2022-12-12T03:34:25.883Z,22.57
2022-12-12T03:37:06.919Z,25.20
2022-12-12T03:39:47.930Z,22.93
2022-12-12T03:42:52.527Z,21.50
2022-12-12T03:45:31.050Z,22.63
2022-12-12T03:48:12.221Z,24.90
2022-12-12T03:50:49.162Z,24.73
2022-12-12T03:53:38.388Z,24.67
2022-12-12T03:56:23.712Z,26.43
2022-12-12T03:59:21.543Z,25.40
2022-12-12T04:01:58.731Z,24.13
2022-12-12T04:05:00.780Z,27.70
2022-12-12T04:07:41.385Z,24.83
2022-12-12T04:10:28.582Z,24.80
2022-12-12T04:13:42.455Z,25.43
2022-12-12T04:16:16.435Z,24.13
2022-12-12T04:18:55.444Z,25.77
2022-12-12T04:22:18.086Z,26.20
2022-12-12T04:24:56.578Z,28.50
2022-12-12T04:27:38.817Z,28.17
2022-12-12T04:30:16.004Z,21.77
2022-12-12T04:33:11.321Z,26.73
2022-12-12T04:35:48.887Z,25.70
2022-12-12T04:38:23.730Z,25.37
2022-12-12T04:41:01.575Z,23.87
2022-12-12T04:43:36.611Z,28.37
2022-12-12T04:46:10.393Z,23.67
2022-12-12T04:48:46.252Z,21.90
2022-12-12T04:51:21.508Z,19.83
2022-12-12T04:53:58.512Z,26.17
2022-12-12T04:56:30.777Z,22.13
2022-12-12T04:58:58.670Z,20.50
2022-12-12T05:01:53.486Z,23.87
2022-12-12T05:04:55.671Z,25.93
2022-12-12T05:07:40.336Z,22.43
2022-12-12T05:10:15.856Z,21.70
2022-12-12T05:12:49.313Z,21.67
2022-12-12T05:15:18.751Z,23.13
2022-12-12T05:17:53.430Z,23.07
2022-12-12T05:20:20.243Z,17.47
2022-12-12T05:22:47.078Z,21.37
2022-12-12T05:25:14.509Z,21.20
2022-12-12T05:27:41.473Z,25.23
2022-12-12T05:30:09.607Z,22.77
2022-12-12T05:32:36.494Z,22.50
2022-12-12T05:35:03.824Z,25.60
2022-12-12T05:37:30.603Z,27.80
2022-12-12T05:39:57.378Z,23.87
2022-12-12T05:42:24.586Z,23.63
2022-12-12T05:44:52.027Z,27.37
2022-12-12T05:47:18.793Z,28.83
2022-12-12T05:49:45.901Z,25.13
2022-12-12T05:52:12.648Z,22.37
2022-12-12T05:54:40.353Z,24.47
2022-12-12T05:57:07.396Z,23.87
2022-12-12T05:59:34.099Z,27.30
2022-12-12T06:02:00.995Z,24.80
2022-12-12T06:04:28.061Z,26.87
2022-12-12T06:06:55.537Z,24.20
2022-12-12T06:09:23.832Z,23.50
2022-12-12T06:11:50.548Z,25.73
2022-12-12T06:14:17.276Z,24.63
2022-12-12T06:16:44.040Z,23.93
2022-12-12T06:19:11.626Z,19.63
2022-12-12T06:21:38.572Z,24.80
2022-12-12T06:24:06.975Z,21.00
2022-12-12T06:26:33.714Z,23.93
2022-12-12T06:29:00.515Z,24.07
2022-12-12T06:31:27.298Z,25.37
2022-12-12T06:33:54.111Z,23.00
2022-12-12T06:36:24.234Z,28.23
2022-12-12T06:38:57.700Z,23.50
2022-12-12T06:41:27.112Z,22.90
2022-12-12T06:43:54.497Z,23.47
2022-12-12T06:46:26.008Z,24.50
2022-12-12T06:48:54.584Z,26.17
2022-12-12T06:51:25.837Z,28.90
2022-12-12T06:53:52.879Z,23.20
2022-12-12T06:56:23.238Z,25.40
2022-12-12T06:58:51.038Z,24.40
2022-12-12T07:01:21.365Z,24.73
2022-12-12T07:03:51.604Z,22.73
2022-12-12T07:06:22.410Z,26.17
2022-12-12T07:08:49.996Z,22.60
2022-12-12T07:11:24.187Z,21.60
2022-12-12T07:13:52.172Z,23.23
2022-12-12T07:16:19.801Z,26.60
2022-12-12T07:18:47.547Z,21.07
2022-12-12T07:21:18.460Z,27.97
2022-12-12T07:23:45.615Z,24.60
2022-12-12T07:26:19.085Z,26.60
2022-12-12T07:28:46.391Z,25.20
2022-12-12T07:31:18.694Z,22.70
2022-12-12T07:33:45.910Z,22.40
2022-12-12T07:36:15.670Z,21.07
2022-12-12T07:38:42.589Z,27.50
2022-12-12T07:41:13.859Z,24.10
2022-12-12T07:43:44.341Z,18.37
2022-12-12T07:46:16.999Z,19.23
2022-12-12T07:48:44.569Z,24.40
2022-12-12T07:51:11.731Z,27.40
2022-12-12T07:53:38.514Z,24.83
2022-12-12T07:56:08.859Z,23.40
2022-12-12T07:58:36.635Z,25.17
2022-12-12T08:01:15.201Z,29.13
2022-12-12T08:03:45.302Z,22.07
2022-12-12T08:06:16.061Z,23.03
2022-12-12T08:08:44.437Z,33.13
2022-12-12T08:11:14.932Z,31.17
2022-12-12T08:13:42.623Z,29.60
2022-12-12T08:16:16.811Z,27.13
2022-12-12T08:18:44.260Z,25.80
2022-12-12T08:21:13.640Z,27.57
2022-12-12T08:23:42.373Z,28.50
2022-12-12T08:26:13.283Z,23.23
2022-12-12T08:28:41.630Z,18.53
2022-12-12T08:31:09.093Z,17.37
2022-12-12T08:33:35.883Z,15.53
2022-12-12T08:36:16.385Z,13.37
2022-12-12T08:38:43.917Z,13.83
2022-12-12T08:41:12.781Z,14.50
2022-12-12T08:43:42.353Z,16.50
2022-12-12T08:46:17.763Z,16.47
2022-12-12T08:48:46.497Z,16.33
2022-12-12T08:51:14.687Z,15.40
2022-12-12T08:53:48.269Z,18.10
2022-12-12T08:56:16.322Z,18.33
2022-12-12T08:58:43.610Z,20.73
2022-12-12T09:01:12.651Z,20.97
2022-12-12T09:03:39.947Z,18.83
2022-12-12T09:06:08.509Z,19.80
2022-12-12T09:08:35.263Z,16.47
2022-12-12T09:11:02.448Z,15.87
2022-12-12T09:13:29.445Z,20.73
2022-12-12T09:15:56.933Z,20.23
2022-12-12T09:18:24.487Z,21.90
2022-12-12T09:20:54.186Z,18.03
2022-12-12T09:23:23.093Z,20.83
2022-12-12T09:25:50.201Z,16.97
2022-12-12T09:28:23.101Z,14.23
2022-12-12T09:30:50.833Z,18.60
2022-12-12T09:33:19.147Z,14.87
2022-12-12T09:35:45.986Z,18.97
2022-12-12T09:38:14.931Z,16.67
2022-12-12T09:40:53.585Z,17.23
2022-12-12T09:43:29.822Z,14.77
2022-12-12T09:45:58.753Z,20.27
2022-12-12T09:48:43.544Z,14.50
2022-12-12T09:51:12.211Z,14.53
2022-12-12T09:53:43.451Z,15.73
2022-12-12T09:56:36.082Z,13.77
2022-12-12T09:59:20.236Z,12.07
2022-12-12T10:02:20.245Z,15.70
2022-12-12T10:05:17.155Z,20.73
2022-12-12T10:07:58.937Z,11.57
2022-12-12T10:10:32.189Z,15.20
2022-12-12T10:13:02.935Z,14.00
2022-12-12T10:15:41.795Z,14.73
2022-12-12T10:18:30.144Z,16.50
2022-12-12T10:21:05.110Z,17.33
2022-12-12T10:23:46.252Z,18.50
2022-12-12T10:26:21.568Z,17.83
2022-12-12T10:29:01.363Z,16.20
2022-12-12T10:31:32.169Z,14.27
2022-12-12T10:34:20.638Z,24.47
2022-12-12T10:37:16.928Z,20.00
2022-12-12T10:40:26.021Z,18.03
2022-12-12T10:43:09.010Z,23.13
2022-12-12T10:46:13.053Z,21.50
2022-12-12T10:48:40.373Z,19.03
2022-12-12T10:51:11.900Z,17.73
2022-12-12T10:53:41.932Z,19.07
2022-12-12T10:56:22.190Z,26.53
2022-12-12T10:58:59.768Z,20.67
2022-12-12T11:04:24.453Z,20.83
2022-12-12T11:06:54.975Z,18.53
2022-12-12T11:09:27.913Z,19.23
2022-12-12T11:12:14.364Z,19.00
2022-12-12T11:14:50.899Z,15.83
2022-12-12T11:17:26.184Z,22.20
2022-12-12T11:19:57.065Z,17.27
2022-12-12T11:22:25.087Z,17.27
2022-12-12T11:24:52.850Z,16.90
2022-12-12T11:27:40.115Z,18.33
2022-12-12T11:30:37.783Z,14.67
2022-12-12T11:33:08.738Z,21.67
2022-12-12T11:35:47.008Z,17.63
2022-12-12T11:38:20.021Z,12.53
2022-12-12T11:41:04.495Z,15.67
2022-12-12T11:43:36.883Z,15.40
2022-12-12T11:46:14.751Z,11.83
2022-12-12T11:48:56.772Z,13.43
2022-12-12T11:51:45.893Z,16.67
2022-12-12T11:54:26.561Z,14.30
2022-12-12T11:57:22.536Z,14.80
2022-12-12T12:00:11.577Z,14.93
2022-12-12T12:03:21.293Z,17.43
2022-12-12T12:06:05.094Z,18.20
2022-12-12T12:09:06.876Z,15.73
2022-12-12T12:12:02.399Z,15.67
2022-12-12T12:15:02.558Z,15.67
2022-12-12T12:18:19.818Z,17.40
2022-12-12T12:21:37.072Z,16.33
2022-12-12T12:24:25.205Z,17.70
2022-12-12T12:27:07.468Z,14.80
2022-12-12T12:30:20.101Z,16.73
2022-12-12T12:33:08.428Z,15.70
2022-12-12T12:36:01.567Z,19.03
2022-12-12T12:38:56.883Z,20.33
2022-12-12T12:41:34.511Z,19.37
2022-12-12T12:44:39.076Z,13.57
2022-12-12T12:47:28.844Z,17.03
2022-12-12T12:50:04.665Z,17.87
2022-12-12T12:53:05.800Z,18.83
2022-12-12T12:55:47.571Z,19.07
2022-12-12T12:58:26.272Z,16.20
2022-12-12T13:01:06.231Z,15.80
2022-12-12T13:03:46.517Z,18.40
2022-12-12T13:06:35.977Z,14.17
2022-12-12T13:09:21.568Z,19.00
2022-12-12T13:11:53.988Z,13.47
2022-12-12T13:14:39.757Z,13.13
2022-12-12T13:17:18.083Z,14.60
2022-12-12T13:19:51.128Z,16.70
2022-12-12T13:22:51.877Z,18.20
2022-12-12T13:25:50.825Z,14.40
2022-12-12T13:28:28.873Z,14.27
2022-12-12T13:31:26.158Z,19.17
2022-12-12T13:34:04.241Z,11.43
2022-12-12T13:36:43.682Z,18.60
2022-12-12T13:39:34.256Z,17.53
2022-12-12T13:42:11.433Z,15.17
2022-12-12T13:44:45.724Z,15.73
2022-12-12T13:47:24.548Z,18.63
2022-12-12T13:50:22.463Z,18.13
2022-12-12T13:53:09.377Z,15.53
2022-12-12T13:55:38.829Z,16.87
2022-12-12T13:58:42.150Z,15.17
2022-12-12T14:01:37.490Z,15.57
2022-12-12T14:04:05.134Z,16.00
2022-12-12T14:06:32.157Z,12.33
2022-12-12T14:09:02.089Z,14.33
2022-12-12T14:11:36.459Z,15.30
2022-12-12T14:14:18.715Z,17.53
2022-12-12T14:16:55.090Z,16.30
2022-12-12T14:19:37.592Z,16.87
2022-12-12T14:22:04.438Z,15.97
2022-12-12T14:24:33.886Z,13.87
2022-12-12T14:27:02.887Z,19.27
2022-12-12T14:29:39.156Z,18.07
2022-12-12T14:32:19.862Z,16.03
2022-12-12T14:35:17.646Z,15.33
2022-12-12T14:38:02.278Z,17.17
2022-12-12T14:40:33.696Z,19.60
2022-12-12T14:43:23.723Z,18.63
2022-12-12T14:45:50.413Z,18.77
2022-12-12T14:48:26.691Z,15.37
2022-12-12T14:51:10.168Z,19.07
2022-12-12T14:53:36.821Z,15.17
2022-12-12T14:56:18.303Z,14.53
2022-12-12T14:58:46.630Z,15.23
2022-12-12T15:01:19.108Z,17.83
2022-12-12T15:03:50.079Z,17.60
2022-12-12T15:06:41.189Z,17.67
2022-12-12T15:09:25.417Z,16.53
2022-12-12T15:11:55.188Z,18.13
2022-12-12T15:14:27.576Z,18.00
2022-12-12T15:17:01.525Z,19.30
2022-12-12T15:19:43.153Z,15.37
2022-12-12T15:22:17.461Z,19.00
2022-12-12T15:24:44.202Z,17.20
2022-12-12T15:27:26.409Z,20.80
2022-12-12T15:29:53.652Z,14.83
2022-12-12T15:32:24.370Z,17.60
2022-12-12T15:35:09.489Z,20.53
2022-12-12T15:37:38.072Z,18.27
2022-12-12T15:40:17.391Z,20.43
2022-12-12T15:42:54.281Z,17.83
2022-12-12T15:45:36.234Z,19.63
2022-12-12T15:48:06.149Z,19.33
2022-12-12T15:50:42.068Z,19.73
2022-12-12T15:53:35.287Z,20.70
2022-12-12T15:56:06.140Z,16.97
2022-12-12T15:58:43.942Z,19.63
2022-12-12T16:01:21.779Z,17.27
2022-12-12T16:04:06.374Z,17.83
2022-12-12T16:06:37.521Z,20.77
2022-12-12T16:09:07.348Z,23.30
2022-12-12T16:11:48.320Z,15.60
2022-12-12T16:14:42.390Z,17.60
2022-12-12T16:17:25.276Z,15.80
2022-12-12T16:20:01.166Z,20.13
2022-12-12T16:22:44.421Z,23.00
2022-12-12T16:25:32.381Z,21.30
2022-12-12T16:28:08.152Z,21.27
2022-12-12T16:30:38.244Z,23.93
2022-12-12T16:33:30.564Z,22.77
2022-12-12T16:36:00.644Z,21.80
2022-12-12T16:38:29.408Z,24.63
2022-12-12T16:41:00.651Z,22.70
2022-12-12T16:43:27.718Z,17.13
2022-12-12T16:45:56.593Z,22.13
2022-12-12T16:48:37.395Z,17.20
2022-12-12T16:51:08.639Z,20.37
2022-12-12T16:53:37.021Z,23.30
2022-12-12T16:56:04.105Z,20.03
2022-12-12T16:58:30.808Z,21.20
2022-12-12T17:00:59.989Z,20.03
2022-12-12T17:03:28.170Z,19.67
2022-12-12T17:05:54.973Z,16.97
2022-12-12T17:08:22.014Z,17.37
2022-12-12T17:10:53.007Z,18.13
2022-12-12T17:13:37.484Z,21.03
2022-12-12T17:16:04.450Z,21.47
2022-12-12T17:18:31.242Z,21.07
2022-12-12T17:20:57.944Z,20.13
2022-12-12T17:23:30.419Z,24.17
2022-12-12T17:26:03.596Z,27.73
2022-12-12T17:28:33.224Z,31.00
2022-12-12T17:31:00.342Z,30.47
2022-12-12T17:33:27.189Z,23.63
2022-12-12T17:36:06.699Z,18.63
2022-12-12T17:38:36.601Z,17.57
2022-12-12T17:41:08.714Z,19.40
2022-12-12T17:43:36.525Z,22.20
2022-12-12T17:46:08.014Z,20.33
2022-12-12T17:48:35.653Z,21.07
2022-12-12T17:51:05.525Z,23.83
2022-12-12T17:53:38.808Z,19.37
2022-12-12T17:56:16.145Z,25.83
2022-12-12T17:58:46.100Z,21.87
2022-12-12T18:01:20.752Z,21.70
2022-12-12T18:03:48.581Z,28.20
2022-12-12T18:06:18.226Z,23.70
2022-12-12T18:08:47.162Z,24.33
2022-12-12T18:11:19.190Z,19.87
2022-12-12T18:13:48.466Z,21.20
2022-12-12T18:16:17.678Z,24.03
2022-12-12T18:18:44.937Z,24.87
2022-12-12T18:21:43.266Z,25.37
2022-12-12T18:24:07.003Z,15.80
2022-12-12T18:26:33.838Z,19.10
2022-12-12T18:29:04.505Z,18.57
2022-12-12T18:31:32.312Z,21.63
2022-12-12T18:33:59.460Z,21.70
2022-12-12T18:36:29.922Z,24.37
2022-12-12T18:38:59.511Z,20.03
2022-12-12T18:41:28.122Z,19.63
2022-12-12T18:43:55.601Z,20.57
2022-12-12T18:46:27.668Z,29.07
2022-12-12T18:48:54.419Z,20.93
2022-12-12T18:51:25.009Z,20.60
2022-12-12T18:53:54.569Z,18.13
2022-12-12T18:56:27.810Z,28.17
2022-12-12T18:58:56.622Z,26.80
2022-12-12T19:01:27.455Z,23.87
2022-12-12T19:03:57.257Z,23.40
2022-12-12T19:06:33.505Z,23.23
2022-12-12T19:09:15.484Z,26.37
2022-12-12T19:11:43.423Z,21.80
2022-12-12T19:14:12.995Z,25.67
2022-12-12T19:16:39.933Z,23.63
2022-12-12T19:19:09.299Z,28.30
2022-12-12T19:21:38.271Z,34.57
2022-12-12T19:24:08.998Z,35.83
2022-12-12T19:26:37.504Z,27.37
2022-12-12T19:29:12.785Z,23.93
2022-12-12T19:31:40.262Z,20.43
2022-12-12T19:34:08.981Z,23.17
2022-12-12T19:36:36.196Z,34.67
2022-12-12T19:39:06.614Z,31.37
2022-12-12T19:41:34.663Z,31.50
2022-12-12T19:44:02.333Z,36.20
2022-12-12T19:46:32.218Z,30.80
2022-12-12T19:49:02.444Z,31.07
2022-12-12T19:51:32.614Z,39.50
2022-12-12T19:54:00.756Z,25.80
2022-12-12T19:56:34.415Z,28.47
2022-12-12T19:59:02.075Z,25.03
2022-12-12T20:01:32.577Z,25.50
2022-12-12T20:04:13.420Z,27.40
2022-12-12T20:06:45.750Z,30.60
2022-12-12T20:09:32.353Z,25.77
2022-12-12T20:12:00.644Z,22.63
2022-12-12T20:14:32.086Z,22.57
2022-12-12T20:17:00.145Z,25.27
2022-12-12T20:19:27.775Z,22.87
2022-12-12T20:22:03.741Z,19.17
2022-12-12T20:24:33.243Z,23.07
2022-12-12T20:27:02.900Z,22.43
2022-12-12T20:29:36.171Z,29.40
2022-12-12T20:32:03.365Z,24.90
2022-12-12T20:34:30.236Z,24.33
2022-12-12T20:36:57.163Z,27.47
2022-12-12T20:39:25.766Z,22.40
2022-12-12T20:41:53.866Z,21.70
2022-12-12T20:44:23.171Z,23.43
2022-12-12T20:46:49.964Z,28.50
2022-12-12T20:49:22.070Z,39.57
2022-12-12T20:51:57.981Z,25.13
2022-12-12T20:54:27.989Z,21.73
2022-12-12T20:56:56.193Z,19.87
2022-12-12T20:59:24.128Z,18.90
2022-12-12T21:01:51.530Z,19.53
2022-12-12T21:04:18.536Z,20.57
2022-12-12T21:06:50.900Z,22.13
2022-12-12T21:09:24.510Z,19.70
2022-12-12T21:11:58.223Z,17.50
2022-12-12T21:14:27.811Z,20.97
2022-12-12T21:16:55.144Z,20.73
2022-12-12T21:19:23.607Z,17.13
2022-12-12T21:21:51.083Z,20.10
2022-12-12T21:24:18.531Z,30.60
2022-12-12T21:26:46.352Z,33.23
2022-12-12T21:29:13.348Z,40.67
2022-12-12T21:31:49.857Z,27.93
2022-12-12T21:34:19.365Z,22.40
2022-12-12T21:36:46.103Z,25.73
2022-12-12T21:39:13.996Z,19.03
2022-12-12T21:41:43.570Z,29.83
2022-12-12T21:44:10.577Z,19.93
2022-12-12T21:46:41.418Z,26.07
2022-12-12T21:49:26.223Z,21.40
2022-12-12T21:52:02.588Z,19.17
2022-12-12T21:54:30.557Z,24.90
2022-12-12T21:57:01.927Z,35.80
2022-12-12T21:59:29.985Z,33.27
2022-12-12T22:01:59.661Z,36.83
2022-12-12T22:04:27.259Z,44.07
2022-12-12T22:06:54.462Z,30.83
2022-12-12T22:09:21.323Z,31.87
2022-12-12T22:11:49.643Z,28.13
2022-12-12T22:14:20.948Z,24.57
2022-12-12T22:16:48.034Z,27.53
2022-12-12T22:19:16.781Z,26.17
2022-12-12T22:21:46.370Z,23.77
2022-12-12T22:24:13.548Z,22.93
2022-12-12T22:26:43.577Z,22.87
2022-12-12T22:29:14.681Z,21.50
2022-12-12T22:31:42.492Z,24.30
2022-12-12T22:34:20.632Z,25.40
2022-12-12T22:36:48.514Z,20.30
2022-12-12T22:39:24.079Z,24.03
2022-12-12T22:41:51.829Z,30.17
2022-12-12T22:44:21.476Z,22.77
2022-12-12T22:46:50.812Z,17.90
2022-12-12T22:49:22.780Z,18.50
2022-12-12T22:51:50.008Z,19.60
2022-12-12T22:54:18.593Z,21.70
2022-12-12T22:56:45.399Z,23.00
2022-12-12T22:59:13.896Z,20.30
2022-12-12T23:01:41.955Z,20.67
2022-12-12T23:04:12.665Z,21.07
2022-12-12T23:06:39.730Z,18.50
2022-12-12T23:09:16.494Z,21.20
2022-12-12T23:11:45.142Z,18.77
2022-12-12T23:14:21.385Z,16.13
2022-12-12T23:16:49.414Z,17.13
2022-12-12T23:19:19.927Z,16.93
2022-12-12T23:21:47.477Z,20.00
2022-12-12T23:24:14.555Z,18.53
2022-12-12T23:26:42.395Z,17.00
2022-12-12T23:29:14.897Z,16.40
2022-12-12T23:31:41.740Z,21.40
2022-12-12T23:34:15.747Z,21.70
2022-12-12T23:36:43.544Z,20.63
2022-12-12T23:39:12.344Z,15.17
2022-12-12T23:41:39.841Z,22.87
2022-12-12T23:44:08.113Z,21.87
2022-12-12T23:46:36.225Z,24.67
2022-12-12T23:49:07.882Z,23.00
2022-12-12T23:51:41.750Z,17.53
2022-12-12T23:54:16.649Z,17.37
2022-12-12T23:56:44.680Z,16.43
2022-12-12T23:59:17.543Z,16.60
